sensor_id;sensor_type;location;lat;lon;timestamp;pressure;altitude;pressure_sealevel;temperature;humidity
77325;BME280;66387;53.440;10.390;2023-03-01T00:02:03;102496.72;;;-0.21;67.15
77325;BME280;66387;53.440;10.390;2023-03-01T00:04:29;102486.59;;;-0.20;67.11
77325;BME280;66387;53.440;10.390;2023-03-01T00:06:55;102481.81;;;-0.28;66.72
77325;BME280;66387;53.440;10.390;2023-03-01T00:09:20;102484.56;;;-0.25;67.66
77325;BME280;66387;53.440;10.390;2023-03-01T00:11:46;102482.38;;;-0.19;67.00
77325;BME280;66387;53.440;10.390;2023-03-01T00:14:11;102487.91;;;-0.26;67.78
77325;BME280;66387;53.440;10.390;2023-03-01T00:16:39;102473.09;;;-0.32;68.01
77325;BME280;66387;53.440;10.390;2023-03-01T00:19:06;102477.25;;;-0.34;68.76
77325;BME280;66387;53.440;10.390;2023-03-01T00:21:32;102475.19;;;-0.39;68.68
77325;BME280;66387;53.440;10.390;2023-03-01T00:23:57;102477.66;;;-0.41;68.75
77325;BME280;66387;53.440;10.390;2023-03-01T00:26:24;102487.41;;;-0.48;68.88
77325;BME280;66387;53.440;10.390;2023-03-01T00:28:50;102474.06;;;-0.58;69.24
77325;BME280;66387;53.440;10.390;2023-03-01T00:31:19;102473.09;;;-0.60;69.06
77325;BME280;66387;53.440;10.390;2023-03-01T00:33:47;102476.72;;;-0.56;69.57
77325;BME280;66387;53.440;10.390;2023-03-01T00:36:15;102478.88;;;-0.49;69.61
77325;BME280;66387;53.440;10.390;2023-03-01T00:38:42;102473.28;;;-0.57;69.50
77325;BME280;66387;53.440;10.390;2023-03-01T00:41:11;102478.50;;;-0.55;69.97
77325;BME280;66387;53.440;10.390;2023-03-01T00:43:37;102477.22;;;-0.62;69.63
77325;BME280;66387;53.440;10.390;2023-03-01T00:46:03;102474.66;;;-0.62;69.64
77325;BME280;66387;53.440;10.390;2023-03-01T00:48:29;102475.28;;;-0.66;69.82
77325;BME280;66387;53.440;10.390;2023-03-01T00:50:54;102471.84;;;-0.66;69.85
77325;BME280;66387;53.440;10.390;2023-03-01T00:53:20;102471.16;;;-0.64;70.25
77325;BME280;66387;53.440;10.390;2023-03-01T00:55:45;102475.78;;;-0.71;69.31
77325;BME280;66387;53.440;10.390;2023-03-01T00:58:10;102480.09;;;-0.70;69.27
77325;BME280;66387;53.440;10.390;2023-03-01T01:00:35;102463.50;;;-0.64;68.87
77325;BME280;66387;53.440;10.390;2023-03-01T01:03:01;102466.41;;;-0.58;69.09
77325;BME280;66387;53.440;10.390;2023-03-01T01:05:26;102462.13;;;-0.59;69.48
77325;BME280;66387;53.440;10.390;2023-03-01T01:07:51;102461.91;;;-0.62;69.40
77325;BME280;66387;53.440;10.390;2023-03-01T01:10:17;102464.38;;;-0.63;69.89
77325;BME280;66387;53.440;10.390;2023-03-01T01:12:46;102469.78;;;-0.72;70.05
77325;BME280;66387;53.440;10.390;2023-03-01T01:15:12;102466.75;;;-0.79;70.16
77325;BME280;66387;53.440;10.390;2023-03-01T01:17:39;102459.41;;;-0.75;69.93
77325;BME280;66387;53.440;10.390;2023-03-01T01:20:05;102460.38;;;-0.73;69.99
77325;BME280;66387;53.440;10.390;2023-03-01T01:22:30;102459.22;;;-0.78;69.86
77325;BME280;66387;53.440;10.390;2023-03-01T01:24:55;102450.00;;;-0.76;69.86
77325;BME280;66387;53.440;10.390;2023-03-01T01:27:21;102456.09;;;-0.74;69.73
77325;BME280;66387;53.440;10.390;2023-03-01T01:29:46;102455.41;;;-0.84;70.16
77325;BME280;66387;53.440;10.390;2023-03-01T01:32:11;102455.69;;;-0.80;70.76
77325;BME280;66387;53.440;10.390;2023-03-01T01:34:36;102453.13;;;-0.80;70.77
77325;BME280;66387;53.440;10.390;2023-03-01T01:37:02;102447.44;;;-0.76;70.44
77325;BME280;66387;53.440;10.390;2023-03-01T01:39:28;102442.00;;;-0.95;70.83
77325;BME280;66387;53.440;10.390;2023-03-01T01:41:53;102437.69;;;-0.96;71.02
77325;BME280;66387;53.440;10.390;2023-03-01T01:44:24;102431.53;;;-1.00;71.29
77325;BME280;66387;53.440;10.390;2023-03-01T01:47:05;102421.63;;;-0.95;71.54
77325;BME280;66387;53.440;10.390;2023-03-01T01:49:42;102428.03;;;-0.87;71.46
77325;BME280;66387;53.440;10.390;2023-03-01T01:54:44;102414.81;;;-0.94;72.09
77325;BME280;66387;53.440;10.390;2023-03-01T01:57:18;102420.75;;;-0.95;72.43
77325;BME280;66387;53.440;10.390;2023-03-01T01:59:48;102420.91;;;-0.92;72.22
77325;BME280;66387;53.440;10.390;2023-03-01T02:02:15;102422.59;;;-0.93;72.21
77325;BME280;66387;53.440;10.390;2023-03-01T02:04:41;102422.06;;;-0.87;71.92
77325;BME280;66387;53.440;10.390;2023-03-01T02:07:19;102420.50;;;-0.85;71.74
77325;BME280;66387;53.440;10.390;2023-03-01T02:09:48;102426.50;;;-0.85;71.37
77325;BME280;66387;53.440;10.390;2023-03-01T02:12:15;102426.97;;;-0.90;72.24
77325;BME280;66387;53.440;10.390;2023-03-01T02:14:42;102416.94;;;-1.02;72.18
77325;BME280;66387;53.440;10.390;2023-03-01T02:17:07;102417.91;;;-1.00;72.41
77325;BME280;66387;53.440;10.390;2023-03-01T02:19:57;102412.09;;;-0.98;72.38
77325;BME280;66387;53.440;10.390;2023-03-01T02:22:22;102410.25;;;-1.00;73.04
77325;BME280;66387;53.440;10.390;2023-03-01T02:25:03;102410.06;;;-1.03;73.42
77325;BME280;66387;53.440;10.390;2023-03-01T02:27:45;102415.56;;;-1.10;72.84
77325;BME280;66387;53.440;10.390;2023-03-01T02:30:15;102416.22;;;-1.13;73.70
77325;BME280;66387;53.440;10.390;2023-03-01T02:32:41;102406.84;;;-1.14;73.91
77325;BME280;66387;53.440;10.390;2023-03-01T02:35:09;102395.41;;;-1.20;74.66
77325;BME280;66387;53.440;10.390;2023-03-01T02:37:36;102406.66;;;-1.17;75.12
77325;BME280;66387;53.440;10.390;2023-03-01T02:40:04;102403.53;;;-1.26;75.17
77325;BME280;66387;53.440;10.390;2023-03-01T02:42:33;102404.41;;;-1.25;75.88
77325;BME280;66387;53.440;10.390;2023-03-01T02:45:01;102403.81;;;-1.21;75.26
77325;BME280;66387;53.440;10.390;2023-03-01T02:47:27;102410.47;;;-1.23;75.55
77325;BME280;66387;53.440;10.390;2023-03-01T02:49:52;102396.78;;;-1.25;75.41
77325;BME280;66387;53.440;10.390;2023-03-01T02:52:28;102393.84;;;-1.31;76.17
77325;BME280;66387;53.440;10.390;2023-03-01T02:55:03;102387.94;;;-1.30;75.62
77325;BME280;66387;53.440;10.390;2023-03-01T02:57:31;102393.22;;;-1.27;75.46
77325;BME280;66387;53.440;10.390;2023-03-01T03:00:03;102388.53;;;-1.21;75.83
77325;BME280;66387;53.440;10.390;2023-03-01T03:02:32;102393.63;;;-1.21;75.95
77325;BME280;66387;53.440;10.390;2023-03-01T03:05:10;102387.53;;;-1.23;75.66
77325;BME280;66387;53.440;10.390;2023-03-01T03:07:37;102383.25;;;-1.24;75.33
77325;BME280;66387;53.440;10.390;2023-03-01T03:10:05;102380.78;;;-1.23;75.31
77325;BME280;66387;53.440;10.390;2023-03-01T03:12:31;102381.47;;;-1.25;74.74
77325;BME280;66387;53.440;10.390;2023-03-01T03:14:56;102386.56;;;-1.25;74.77
77325;BME280;66387;53.440;10.390;2023-03-01T03:17:21;102387.56;;;-1.36;75.85
77325;BME280;66387;53.440;10.390;2023-03-01T03:19:47;102391.19;;;-1.33;75.64
77325;BME280;66387;53.440;10.390;2023-03-01T03:22:12;102386.97;;;-1.32;75.72
77325;BME280;66387;53.440;10.390;2023-03-01T03:24:37;102389.34;;;-1.35;75.82
77325;BME280;66387;53.440;10.390;2023-03-01T03:27:07;102379.22;;;-1.34;76.14
77325;BME280;66387;53.440;10.390;2023-03-01T03:29:33;102374.25;;;-1.32;76.33
77325;BME280;66387;53.440;10.390;2023-03-01T03:31:58;102377.75;;;-1.30;76.28
77325;BME280;66387;53.440;10.390;2023-03-01T03:34:24;102364.63;;;-1.23;76.69
77325;BME280;66387;53.440;10.390;2023-03-01T03:36:55;102361.88;;;-1.13;76.25
77325;BME280;66387;53.440;10.390;2023-03-01T03:39:22;102359.97;;;-1.03;76.06
77325;BME280;66387;53.440;10.390;2023-03-01T03:41:48;102362.72;;;-1.00;75.75
77325;BME280;66387;53.440;10.390;2023-03-01T03:44:13;102365.63;;;-0.93;75.08
77325;BME280;66387;53.440;10.390;2023-03-01T03:46:38;102363.00;;;-0.95;75.51
77325;BME280;66387;53.440;10.390;2023-03-01T03:49:03;102364.66;;;-0.95;75.66
77325;BME280;66387;53.440;10.390;2023-03-01T03:51:28;102365.63;;;-0.93;75.52
77325;BME280;66387;53.440;10.390;2023-03-01T03:53:54;102370.72;;;-0.93;75.62
77325;BME280;66387;53.440;10.390;2023-03-01T03:56:19;102361.41;;;-0.93;76.31
77325;BME280;66387;53.440;10.390;2023-03-01T03:58:44;102374.50;;;-0.87;77.20
77325;BME280;66387;53.440;10.390;2023-03-01T04:01:09;102374.72;;;-0.84;75.88
77325;BME280;66387;53.440;10.390;2023-03-01T04:03:35;102367.78;;;-0.72;75.67
77325;BME280;66387;53.440;10.390;2023-03-01T04:06:00;102370.72;;;-0.66;75.30
77325;BME280;66387;53.440;10.390;2023-03-01T04:08:27;102361.41;;;-0.51;74.48
77325;BME280;66387;53.440;10.390;2023-03-01T04:10:58;102357.84;;;-0.39;73.72
77325;BME280;66387;53.440;10.390;2023-03-01T04:13:23;102363.31;;;-0.33;74.32
77325;BME280;66387;53.440;10.390;2023-03-01T04:15:51;102361.72;;;-0.31;75.83
77325;BME280;66387;53.440;10.390;2023-03-01T04:18:17;102358.38;;;-0.30;74.48
77325;BME280;66387;53.440;10.390;2023-03-01T04:20:43;102357.66;;;-0.28;73.92
77325;BME280;66387;53.440;10.390;2023-03-01T04:23:13;102356.78;;;-0.28;75.42
77325;BME280;66387;53.440;10.390;2023-03-01T04:28:08;102348.78;;;-0.34;74.28
77325;BME280;66387;53.440;10.390;2023-03-01T04:30:35;102343.06;;;-0.30;73.79
77325;BME280;66387;53.440;10.390;2023-03-01T04:33:02;102348.19;;;-0.16;73.17
77325;BME280;66387;53.440;10.390;2023-03-01T04:35:28;102345.25;;;-0.07;73.53
77325;BME280;66387;53.440;10.390;2023-03-01T04:37:53;102337.25;;;0.02;73.04
77325;BME280;66387;53.440;10.390;2023-03-01T04:40:19;102340.50;;;0.14;72.30
77325;BME280;66387;53.440;10.390;2023-03-01T04:42:44;102341.13;;;0.10;73.68
77325;BME280;66387;53.440;10.390;2023-03-01T04:45:10;102341.56;;;0.17;72.39
77325;BME280;66387;53.440;10.390;2023-03-01T04:47:42;102341.09;;;0.24;71.79
77325;BME280;66387;53.440;10.390;2023-03-01T04:50:12;102346.53;;;0.30;71.63
77325;BME280;66387;53.440;10.390;2023-03-01T04:52:38;102350.25;;;0.35;71.92
77325;BME280;66387;53.440;10.390;2023-03-01T04:55:04;102337.81;;;0.41;72.32
77325;BME280;66387;53.440;10.390;2023-03-01T04:57:30;102342.66;;;0.37;72.85
77325;BME280;66387;53.440;10.390;2023-03-01T04:59:55;102334.38;;;0.41;72.21
77325;BME280;66387;53.440;10.390;2023-03-01T05:02:20;102334.38;;;0.41;73.02
77325;BME280;66387;53.440;10.390;2023-03-01T05:04:45;102334.72;;;0.47;71.53
77325;BME280;66387;53.440;10.390;2023-03-01T05:07:11;102340.69;;;0.47;71.50
77325;BME280;66387;53.440;10.390;2023-03-01T05:09:38;102342.63;;;0.52;71.37
77325;BME280;66387;53.440;10.390;2023-03-01T05:12:03;102342.47;;;0.48;72.41
77325;BME280;66387;53.440;10.390;2023-03-01T05:14:29;102331.50;;;0.51;71.89
77325;BME280;66387;53.440;10.390;2023-03-01T05:16:54;102342.88;;;0.56;70.82
77325;BME280;66387;53.440;10.390;2023-03-01T05:19:19;102334.69;;;0.62;71.06
77325;BME280;66387;53.440;10.390;2023-03-01T05:21:48;102337.47;;;0.66;70.99
77325;BME280;66387;53.440;10.390;2023-03-01T05:24:31;102335.94;;;0.70;71.62
77325;BME280;66387;53.440;10.390;2023-03-01T05:26:56;102336.22;;;0.74;71.67
77325;BME280;66387;53.440;10.390;2023-03-01T05:29:23;102342.38;;;0.78;71.22
77325;BME280;66387;53.440;10.390;2023-03-01T05:31:55;102344.44;;;0.85;70.42
77325;BME280;66387;53.440;10.390;2023-03-01T05:34:29;102343.91;;;0.60;72.96
77325;BME280;66387;53.440;10.390;2023-03-01T05:36:56;102336.56;;;0.66;73.76
77325;BME280;66387;53.440;10.390;2023-03-01T05:39:23;102340.78;;;0.80;71.34
77325;BME280;66387;53.440;10.390;2023-03-01T05:41:52;102336.88;;;0.86;70.12
77325;BME280;66387;53.440;10.390;2023-03-01T05:44:18;102338.53;;;0.86;70.67
77325;BME280;66387;53.440;10.390;2023-03-01T05:46:43;102335.91;;;0.84;70.41
77325;BME280;66387;53.440;10.390;2023-03-01T05:49:10;102333.59;;;0.73;70.06
77325;BME280;66387;53.440;10.390;2023-03-01T05:51:35;102328.63;;;0.76;69.96
77325;BME280;66387;53.440;10.390;2023-03-01T05:54:00;102342.63;;;0.82;69.61
77325;BME280;66387;53.440;10.390;2023-03-01T05:56:26;102335.53;;;0.62;70.53
77325;BME280;66387;53.440;10.390;2023-03-01T05:58:51;102325.03;;;0.41;70.43
77325;BME280;66387;53.440;10.390;2023-03-01T06:01:16;102329.41;;;0.44;71.41
77325;BME280;66387;53.440;10.390;2023-03-01T06:03:42;102326.81;;;0.42;72.67
77325;BME280;66387;53.440;10.390;2023-03-01T06:06:07;102326.97;;;0.45;73.28
77325;BME280;66387;53.440;10.390;2023-03-01T06:08:32;102335.47;;;0.61;72.84
77325;BME280;66387;53.440;10.390;2023-03-01T06:10:57;102330.81;;;0.54;73.90
77325;BME280;66387;53.440;10.390;2023-03-01T06:13:24;102320.75;;;0.57;73.73
77325;BME280;66387;53.440;10.390;2023-03-01T06:15:49;102324.53;;;0.63;73.23
77325;BME280;66387;53.440;10.390;2023-03-01T06:18:14;102326.78;;;0.73;73.31
77325;BME280;66387;53.440;10.390;2023-03-01T06:20:40;102322.78;;;0.78;72.75
77325;BME280;66387;53.440;10.390;2023-03-01T06:23:05;102322.28;;;0.53;72.59
77325;BME280;66387;53.440;10.390;2023-03-01T06:25:31;102318.13;;;0.55;73.56
77325;BME280;66387;53.440;10.390;2023-03-01T06:27:57;102321.28;;;0.51;73.36
77325;BME280;66387;53.440;10.390;2023-03-01T06:30:24;102317.41;;;0.58;73.63
77325;BME280;66387;53.440;10.390;2023-03-01T06:32:50;102312.53;;;0.62;72.50
77325;BME280;66387;53.440;10.390;2023-03-01T06:35:17;102314.78;;;0.56;73.23
77325;BME280;66387;53.440;10.390;2023-03-01T06:37:44;102319.16;;;0.59;73.62
77325;BME280;66387;53.440;10.390;2023-03-01T06:40:10;102317.75;;;0.64;73.11
77325;BME280;66387;53.440;10.390;2023-03-01T06:42:40;102327.25;;;0.66;73.75
77325;BME280;66387;53.440;10.390;2023-03-01T06:45:07;102320.59;;;0.54;74.47
77325;BME280;66387;53.440;10.390;2023-03-01T06:47:33;102324.09;;;0.56;73.79
77325;BME280;66387;53.440;10.390;2023-03-01T06:49:59;102311.69;;;0.62;74.87
77325;BME280;66387;53.440;10.390;2023-03-01T06:52:25;102327.19;;;0.81;74.11
77325;BME280;66387;53.440;10.390;2023-03-01T06:54:50;102318.97;;;0.86;74.31
77325;BME280;66387;53.440;10.390;2023-03-01T06:57:16;102324.50;;;0.94;73.34
77325;BME280;66387;53.440;10.390;2023-03-01T06:59:41;102319.53;;;0.97;73.71
77325;BME280;66387;53.440;10.390;2023-03-01T07:02:12;102324.16;;;0.88;74.11
77325;BME280;66387;53.440;10.390;2023-03-01T07:04:37;102322.16;;;0.98;73.06
77325;BME280;66387;53.440;10.390;2023-03-01T07:07:03;102321.00;;;1.08;72.59
77325;BME280;66387;53.440;10.390;2023-03-01T07:09:28;102318.75;;;1.14;72.83
77325;BME280;66387;53.440;10.390;2023-03-01T07:11:53;102324.34;;;1.07;72.41
77325;BME280;66387;53.440;10.390;2023-03-01T07:14:18;102324.97;;;1.03;73.36
77325;BME280;66387;53.440;10.390;2023-03-01T07:16:45;102314.19;;;1.09;72.86
77325;BME280;66387;53.440;10.390;2023-03-01T07:19:10;102317.38;;;0.88;74.07
77325;BME280;66387;53.440;10.390;2023-03-01T07:21:36;102320.81;;;0.73;74.33
77325;BME280;66387;53.440;10.390;2023-03-01T07:24:05;102316.97;;;0.81;74.01
77325;BME280;66387;53.440;10.390;2023-03-01T07:26:30;102329.28;;;0.88;74.88
77325;BME280;66387;53.440;10.390;2023-03-01T07:28:58;102325.75;;;0.86;74.40
77325;BME280;66387;53.440;10.390;2023-03-01T07:31:24;102326.06;;;0.92;74.19
77325;BME280;66387;53.440;10.390;2023-03-01T07:33:49;102320.00;;;0.74;74.83
77325;BME280;66387;53.440;10.390;2023-03-01T07:36:14;102316.16;;;0.82;74.61
77325;BME280;66387;53.440;10.390;2023-03-01T07:38:39;102314.56;;;0.84;74.46
77325;BME280;66387;53.440;10.390;2023-03-01T07:41:05;102318.88;;;0.69;74.41
77325;BME280;66387;53.440;10.390;2023-03-01T07:43:31;102312.47;;;0.61;75.15
77325;BME280;66387;53.440;10.390;2023-03-01T07:46:01;102316.38;;;0.54;75.75
77325;BME280;66387;53.440;10.390;2023-03-01T07:48:27;102306.09;;;0.69;75.42
77325;BME280;66387;53.440;10.390;2023-03-01T07:50:52;102309.50;;;0.53;75.83
77325;BME280;66387;53.440;10.390;2023-03-01T07:53:17;102314.47;;;0.66;75.52
77325;BME280;66387;53.440;10.390;2023-03-01T07:55:43;102327.03;;;0.78;74.20
77325;BME280;66387;53.440;10.390;2023-03-01T07:58:08;102316.31;;;0.85;74.34
77325;BME280;66387;53.440;10.390;2023-03-01T08:00:33;102322.22;;;0.84;75.47
77325;BME280;66387;53.440;10.390;2023-03-01T08:02:59;102324.88;;;0.85;75.23
77325;BME280;66387;53.440;10.390;2023-03-01T08:05:25;102320.00;;;1.06;73.66
77325;BME280;66387;53.440;10.390;2023-03-01T08:07:51;102323.13;;;1.17;72.82
77325;BME280;66387;53.440;10.390;2023-03-01T08:10:16;102325.94;;;1.05;73.33
77325;BME280;66387;53.440;10.390;2023-03-01T08:12:42;102327.38;;;1.16;73.87
77325;BME280;66387;53.440;10.390;2023-03-01T08:15:08;102333.59;;;1.21;72.99
77325;BME280;66387;53.440;10.390;2023-03-01T08:17:33;102333.78;;;1.08;72.98
77325;BME280;66387;53.440;10.390;2023-03-01T08:19:58;102333.34;;;1.17;72.64
77325;BME280;66387;53.440;10.390;2023-03-01T08:22:24;102326.56;;;1.17;72.54
77325;BME280;66387;53.440;10.390;2023-03-01T08:24:49;102338.72;;;1.05;73.64
77325;BME280;66387;53.440;10.390;2023-03-01T08:27:16;102324.72;;;0.98;72.94
77325;BME280;66387;53.440;10.390;2023-03-01T08:29:41;102326.34;;;1.13;72.36
77325;BME280;66387;53.440;10.390;2023-03-01T08:32:06;102324.88;;;1.18;72.49
77325;BME280;66387;53.440;10.390;2023-03-01T08:34:31;102321.50;;;1.35;71.95
77325;BME280;66387;53.440;10.390;2023-03-01T08:36:57;102321.09;;;1.60;72.17
77325;BME280;66387;53.440;10.390;2023-03-01T08:39:22;102328.56;;;1.73;71.80
77325;BME280;66387;53.440;10.390;2023-03-01T08:41:47;102322.81;;;1.77;72.31
77325;BME280;66387;53.440;10.390;2023-03-01T08:44:14;102321.44;;;2.01;71.60
77325;BME280;66387;53.440;10.390;2023-03-01T08:46:42;102325.78;;;2.02;71.45
77325;BME280;66387;53.440;10.390;2023-03-01T08:49:09;102312.22;;;2.22;70.81
77325;BME280;66387;53.440;10.390;2023-03-01T08:51:35;102318.59;;;2.30;71.00
77325;BME280;66387;53.440;10.390;2023-03-01T08:54:10;102314.59;;;2.18;71.15
77325;BME280;66387;53.440;10.390;2023-03-01T08:56:36;102316.41;;;2.20;71.48
77325;BME280;66387;53.440;10.390;2023-03-01T08:59:02;102308.47;;;2.33;71.75
77325;BME280;66387;53.440;10.390;2023-03-01T09:01:27;102303.19;;;2.48;70.98
77325;BME280;66387;53.440;10.390;2023-03-01T09:03:53;102305.19;;;2.54;70.78
77325;BME280;66387;53.440;10.390;2023-03-01T09:06:18;102303.91;;;2.63;70.71
77325;BME280;66387;53.440;10.390;2023-03-01T09:08:47;102301.38;;;2.82;70.53
77325;BME280;66387;53.440;10.390;2023-03-01T09:11:14;102309.56;;;2.93;69.36
77325;BME280;66387;53.440;10.390;2023-03-01T09:13:43;102312.31;;;2.97;69.76
77325;BME280;66387;53.440;10.390;2023-03-01T09:16:10;102312.25;;;3.15;70.38
77325;BME280;66387;53.440;10.390;2023-03-01T09:18:36;102313.97;;;3.35;68.96
77325;BME280;66387;53.440;10.390;2023-03-01T09:21:14;102317.34;;;3.54;69.58
77325;BME280;66387;53.440;10.390;2023-03-01T09:23:44;102311.97;;;3.68;68.59
77325;BME280;66387;53.440;10.390;2023-03-01T09:26:12;102308.44;;;3.85;68.74
77325;BME280;66387;53.440;10.390;2023-03-01T09:28:38;102312.03;;;3.90;68.80
77325;BME280;66387;53.440;10.390;2023-03-01T09:31:04;102304.72;;;4.00;68.95
77325;BME280;66387;53.440;10.390;2023-03-01T09:33:31;102301.81;;;4.13;68.94
77325;BME280;66387;53.440;10.390;2023-03-01T09:36:05;102308.38;;;4.27;69.36
77325;BME280;66387;53.440;10.390;2023-03-01T09:38:32;102305.78;;;4.48;69.52
77325;BME280;66387;53.440;10.390;2023-03-01T09:40:57;102307.13;;;4.60;68.35
77325;BME280;66387;53.440;10.390;2023-03-01T09:43:48;102312.19;;;4.81;69.14
77325;BME280;66387;53.440;10.390;2023-03-01T09:46:20;102311.72;;;4.91;67.86
77325;BME280;66387;53.440;10.390;2023-03-01T09:49:03;102313.28;;;5.10;67.49
77325;BME280;66387;53.440;10.390;2023-03-01T09:51:34;102318.81;;;5.20;67.38
77325;BME280;66387;53.440;10.390;2023-03-01T09:54:04;102311.91;;;5.19;67.21
77325;BME280;66387;53.440;10.390;2023-03-01T09:56:35;102322.91;;;5.15;67.71
77325;BME280;66387;53.440;10.390;2023-03-01T10:02:21;102315.84;;;5.33;68.45
77325;BME280;66387;53.440;10.390;2023-03-01T10:04:50;102313.09;;;5.53;66.94
77325;BME280;66387;53.440;10.390;2023-03-01T10:09:45;102306.53;;;5.86;67.08
77325;BME280;66387;53.440;10.390;2023-03-01T10:12:18;102310.31;;;6.24;65.11
77325;BME280;66387;53.440;10.390;2023-03-01T10:14:57;102303.34;;;6.48;65.40
77325;BME280;66387;53.440;10.390;2023-03-01T10:17:35;102311.56;;;6.93;62.85
77325;BME280;66387;53.440;10.390;2023-03-01T10:23:24;102312.56;;;7.28;61.39
77325;BME280;66387;53.440;10.390;2023-03-01T10:26:00;102306.81;;;7.71;60.04
77325;BME280;66387;53.440;10.390;2023-03-01T10:28:36;102302.09;;;7.89;59.76
77325;BME280;66387;53.440;10.390;2023-03-01T10:31:15;102301.09;;;8.18;58.78
77325;BME280;66387;53.440;10.390;2023-03-01T10:33:41;102301.19;;;8.59;58.67
77325;BME280;66387;53.440;10.390;2023-03-01T10:36:08;102299.50;;;8.61;58.56
77325;BME280;66387;53.440;10.390;2023-03-01T10:38:56;102293.59;;;8.68;57.24
77325;BME280;66387;53.440;10.390;2023-03-01T10:41:24;102286.00;;;8.75;57.13
77325;BME280;66387;53.440;10.390;2023-03-01T10:43:52;102294.69;;;8.77;57.30
77325;BME280;66387;53.440;10.390;2023-03-01T10:46:30;102293.53;;;8.27;57.78
77325;BME280;66387;53.440;10.390;2023-03-01T10:49:15;102286.72;;;7.95;58.67
77325;BME280;66387;53.440;10.390;2023-03-01T10:51:41;102291.53;;;7.47;60.10
77325;BME280;66387;53.440;10.390;2023-03-01T10:54:29;102285.56;;;7.17;61.28
77325;BME280;66387;53.440;10.390;2023-03-01T10:56:57;102298.66;;;6.93;62.92
77325;BME280;66387;53.440;10.390;2023-03-01T10:59:37;102299.41;;;6.89;62.58
77325;BME280;66387;53.440;10.390;2023-03-01T11:02:15;102288.03;;;6.82;62.84
77325;BME280;66387;53.440;10.390;2023-03-01T11:07:21;102289.25;;;6.95;63.22
77325;BME280;66387;53.440;10.390;2023-03-01T11:09:46;102287.19;;;7.13;63.10
77325;BME280;66387;53.440;10.390;2023-03-01T11:12:14;102289.81;;;7.46;61.39
77325;BME280;66387;53.440;10.390;2023-03-01T11:14:47;102290.34;;;7.67;60.90
77325;BME280;66387;53.440;10.390;2023-03-01T11:17:18;102287.22;;;8.15;59.25
77325;BME280;66387;53.440;10.390;2023-03-01T11:20:15;102277.03;;;8.60;57.98
77325;BME280;66387;53.440;10.390;2023-03-01T11:22:47;102278.59;;;9.37;55.32
77325;BME280;66387;53.440;10.390;2023-03-01T11:25:13;102272.16;;;10.14;53.83
77325;BME280;66387;53.440;10.390;2023-03-01T11:27:42;102273.34;;;10.35;53.11
77325;BME280;66387;53.440;10.390;2023-03-01T11:30:35;102277.97;;;10.58;51.55
77325;BME280;66387;53.440;10.390;2023-03-01T11:35:45;102275.94;;;10.35;52.49
77325;BME280;66387;53.440;10.390;2023-03-01T11:38:21;102269.50;;;10.73;52.02
77325;BME280;66387;53.440;10.390;2023-03-01T11:40:51;102261.31;;;11.10;51.06
77325;BME280;66387;53.440;10.390;2023-03-01T11:43:25;102260.03;;;11.58;50.07
77325;BME280;66387;53.440;10.390;2023-03-01T11:45:56;102265.03;;;11.38;49.24
77325;BME280;66387;53.440;10.390;2023-03-01T11:48:39;102259.72;;;11.24;49.63
77325;BME280;66387;53.440;10.390;2023-03-01T11:51:16;102265.78;;;11.25;50.60
77325;BME280;66387;53.440;10.390;2023-03-01T11:54:06;102257.44;;;11.59;49.29
77325;BME280;66387;53.440;10.390;2023-03-01T11:56:38;102253.13;;;11.61;50.20
77325;BME280;66387;53.440;10.390;2023-03-01T11:59:19;102254.47;;;12.21;47.29
77325;BME280;66387;53.440;10.390;2023-03-01T12:10:24;102236.97;;;11.94;48.01
77325;BME280;66387;53.440;10.390;2023-03-01T12:18:56;102228.59;;;11.33;49.84
77325;BME280;66387;53.440;10.390;2023-03-01T12:31:08;102215.72;;;12.82;45.80
77325;BME280;66387;53.440;10.390;2023-03-01T12:33:43;102208.00;;;13.19;45.95
77325;BME280;66387;53.440;10.390;2023-03-01T12:36:49;102204.56;;;13.57;46.32
77325;BME280;66387;53.440;10.390;2023-03-01T12:44:35;102184.53;;;13.18;45.88
77325;BME280;66387;53.440;10.390;2023-03-01T12:50:12;102179.06;;;12.41;46.42
77325;BME280;66387;53.440;10.390;2023-03-01T12:52:44;102173.88;;;12.44;47.45
77325;BME280;66387;53.440;10.390;2023-03-01T13:01:04;102163.56;;;12.77;47.06
77325;BME280;66387;53.440;10.390;2023-03-01T13:09:09;102159.28;;;13.03;45.41
77325;BME280;66387;53.440;10.390;2023-03-01T13:11:42;102157.53;;;12.98;46.48
77325;BME280;66387;53.440;10.390;2023-03-01T13:16:46;102158.44;;;13.12;45.72
77325;BME280;66387;53.440;10.390;2023-03-01T13:19:19;102161.75;;;12.49;46.64
77325;BME280;66387;53.440;10.390;2023-03-01T13:21:46;102157.53;;;12.92;46.55
77325;BME280;66387;53.440;10.390;2023-03-01T13:29:47;102147.94;;;13.95;44.11
77325;BME280;66387;53.440;10.390;2023-03-01T13:34:47;102149.53;;;12.39;46.53
77325;BME280;66387;53.440;10.390;2023-03-01T13:37:24;102143.50;;;12.47;46.48
77325;BME280;66387;53.440;10.390;2023-03-01T13:39:51;102134.03;;;12.90;46.18
77325;BME280;66387;53.440;10.390;2023-03-01T13:42:40;102138.41;;;12.97;45.86
77325;BME280;66387;53.440;10.390;2023-03-01T13:45:39;102132.31;;;12.83;45.54
77325;BME280;66387;53.440;10.390;2023-03-01T13:48:11;102131.41;;;12.75;45.47
77325;BME280;66387;53.440;10.390;2023-03-01T13:50:47;102133.25;;;13.21;45.76
77325;BME280;66387;53.440;10.390;2023-03-01T13:53:17;102136.72;;;13.23;45.94
77325;BME280;66387;53.440;10.390;2023-03-01T13:55:46;102127.13;;;13.60;44.56
77325;BME280;66387;53.440;10.390;2023-03-01T13:58:22;102134.09;;;13.69;44.57
77325;BME280;66387;53.440;10.390;2023-03-01T14:00:55;102114.88;;;13.88;44.09
77325;BME280;66387;53.440;10.390;2023-03-01T14:03:21;102119.16;;;14.10;44.04
77325;BME280;66387;53.440;10.390;2023-03-01T14:06:01;102121.91;;;13.80;44.56
77325;BME280;66387;53.440;10.390;2023-03-01T14:08:29;102124.47;;;13.89;43.99